createdAt,value
2023-04-16T00:00:10.307Z,23.90
2023-04-16T00:02:42.975Z,24.10
2023-04-16T00:04:55.596Z,24.80
2023-04-16T00:07:08.389Z,28.90
2023-04-16T00:09:20.994Z,28.90
2023-04-16T00:11:33.517Z,29.40
2023-04-16T00:13:46.065Z,29.40
2023-04-16T00:15:59.140Z,29.90
2023-04-16T00:18:11.685Z,29.10
2023-04-16T00:20:24.241Z,28.70
2023-04-16T00:22:36.971Z,27.60
2023-04-16T00:24:49.542Z,29.80
2023-04-16T00:27:02.071Z,28.70
2023-04-16T00:29:14.665Z,28.70
2023-04-16T00:31:31.878Z,29.70
2023-04-16T00:33:44.442Z,30.60
2023-04-16T00:35:57.169Z,25.80
2023-04-16T00:38:09.755Z,29.20
2023-04-16T00:40:22.281Z,33.10
2023-04-16T00:42:36.981Z,42.20
2023-04-16T00:44:49.583Z,41.70
2023-04-16T00:47:03.039Z,43.60
2023-04-16T00:49:15.603Z,47.40
2023-04-16T00:51:28.450Z,48.60
2023-04-16T00:53:41.656Z,41.80
2023-04-16T00:55:56.103Z,41.50
2023-04-16T00:58:08.673Z,39.90
2023-04-16T01:00:21.640Z,37.70
2023-04-16T01:02:34.702Z,37.00
2023-04-16T01:04:47.523Z,34.00
2023-04-16T01:07:00.498Z,26.80
2023-04-16T01:09:13.114Z,25.00
2023-04-16T01:11:25.819Z,23.90
2023-04-16T01:13:41.051Z,23.70
2023-04-16T01:15:53.577Z,27.00
2023-04-16T01:18:16.897Z,24.90
2023-04-16T01:20:29.773Z,24.40
2023-04-16T01:22:42.741Z,23.60
2023-04-16T01:24:55.376Z,20.60
2023-04-16T01:27:07.931Z,20.70
2023-04-16T01:29:20.648Z,18.40
2023-04-16T01:31:33.341Z,19.70
2023-04-16T01:33:46.124Z,18.40
2023-04-16T01:35:58.679Z,20.00
2023-04-16T01:38:11.255Z,18.60
2023-04-16T01:40:23.810Z,18.60
2023-04-16T01:42:37.549Z,19.30
2023-04-16T01:44:50.163Z,19.70
2023-04-16T01:47:02.923Z,20.60
2023-04-16T01:49:15.847Z,29.00
2023-04-16T01:51:28.431Z,24.00
2023-04-16T01:53:40.936Z,21.20
2023-04-16T01:55:53.575Z,18.70
2023-04-16T01:58:07.907Z,17.70
2023-04-16T02:00:20.538Z,17.70
2023-04-16T02:02:33.192Z,17.00
2023-04-16T02:04:46.330Z,17.80
2023-04-16T02:06:58.889Z,17.90
2023-04-16T02:09:11.709Z,17.10
2023-04-16T02:11:24.357Z,17.10
2023-04-16T02:13:36.926Z,18.20
2023-04-16T02:15:50.567Z,17.10
2023-04-16T02:18:03.275Z,19.10
2023-04-16T02:20:16.196Z,18.30
2023-04-16T02:22:28.743Z,17.30
2023-04-16T02:24:41.339Z,17.20
2023-04-16T02:26:54.696Z,16.00
2023-04-16T02:29:07.397Z,17.50
2023-04-16T02:31:19.991Z,16.30
2023-04-16T02:33:32.587Z,15.10
2023-04-16T02:35:45.185Z,17.20
2023-04-16T02:37:58.617Z,18.20
2023-04-16T02:40:11.617Z,20.00
2023-04-16T02:42:24.142Z,20.90
2023-04-16T02:44:36.634Z,20.30
2023-04-16T02:46:49.216Z,19.40
2023-04-16T02:49:01.714Z,22.20
2023-04-16T02:51:14.277Z,21.40
2023-04-16T02:53:26.826Z,23.20
2023-04-16T02:55:39.367Z,24.00
2023-04-16T02:57:52.886Z,24.30
2023-04-16T03:00:06.051Z,23.90
2023-04-16T03:02:18.600Z,22.10
2023-04-16T03:04:33.299Z,33.50
2023-04-16T03:06:46.231Z,40.20
2023-04-16T03:08:58.889Z,38.90
2023-04-16T03:11:11.676Z,58.40
2023-04-16T03:13:24.194Z,62.90
2023-04-16T03:15:36.833Z,70.50
2023-04-16T03:17:49.619Z,74.10
2023-04-16T03:20:02.248Z,66.70
2023-04-16T03:22:14.800Z,71.30
2023-04-16T03:24:28.109Z,72.70
2023-04-16T03:26:40.682Z,59.20
2023-04-16T03:28:53.252Z,69.00
2023-04-16T03:31:06.083Z,56.90
2023-04-16T03:33:19.465Z,50.70
2023-04-16T03:35:32.072Z,35.10
2023-04-16T03:37:44.626Z,35.10
2023-04-16T03:39:57.186Z,29.30
2023-04-16T03:42:09.751Z,32.80
2023-04-16T03:44:22.404Z,26.70
2023-04-16T03:46:35.036Z,31.20
2023-04-16T03:48:47.646Z,24.50
2023-04-16T03:51:00.597Z,22.90
2023-04-16T03:53:13.272Z,24.20
2023-04-16T03:55:25.812Z,24.90
2023-04-16T03:57:38.401Z,27.20
2023-04-16T03:59:51.072Z,24.50
2023-04-16T04:02:03.753Z,23.10
2023-04-16T04:04:16.680Z,23.90
2023-04-16T04:06:29.268Z,25.50
2023-04-16T04:08:42.840Z,24.60
2023-04-16T04:10:55.394Z,24.10
2023-04-16T04:13:08.055Z,21.30
2023-04-16T04:15:20.656Z,20.70
2023-04-16T04:17:33.240Z,18.60
2023-04-16T04:19:59.980Z,19.50
2023-04-16T04:22:13.503Z,21.50
2023-04-16T04:24:27.025Z,21.30
2023-04-16T04:26:39.585Z,20.90
2023-04-16T04:28:52.354Z,20.30
2023-04-16T04:31:05.326Z,20.70
2023-04-16T04:33:17.823Z,20.30
2023-04-16T04:35:30.402Z,19.00
2023-04-16T04:37:42.958Z,19.30
2023-04-16T04:39:55.759Z,18.30
2023-04-16T04:42:08.583Z,18.80
2023-04-16T04:44:21.142Z,18.90
2023-04-16T04:46:33.723Z,19.20
2023-04-16T04:48:46.224Z,19.30
2023-04-16T04:50:58.886Z,19.10
2023-04-16T04:53:11.512Z,20.40
2023-04-16T04:55:24.205Z,22.60
2023-04-16T04:57:36.750Z,24.60
2023-04-16T04:59:49.328Z,29.60
2023-04-16T05:02:03.370Z,33.10
2023-04-16T05:04:16.234Z,29.80
2023-04-16T05:06:29.705Z,22.20
2023-04-16T05:08:42.299Z,21.40
2023-04-16T05:10:54.836Z,21.00
2023-04-16T05:13:07.528Z,21.00
2023-04-16T05:15:20.208Z,20.80
2023-04-16T05:17:32.766Z,20.80
2023-04-16T05:19:45.370Z,21.70
2023-04-16T05:21:57.918Z,21.00
2023-04-16T05:24:10.639Z,22.70
2023-04-16T05:26:23.503Z,23.70
2023-04-16T05:28:36.108Z,26.10
2023-04-16T05:30:48.725Z,25.40
2023-04-16T05:33:01.295Z,26.60
2023-04-16T05:35:16.725Z,25.10
2023-04-16T05:37:30.030Z,25.30
2023-04-16T05:39:42.595Z,21.10
2023-04-16T05:41:55.110Z,19.60
2023-04-16T05:44:07.702Z,18.00
2023-04-16T05:46:20.532Z,19.30
2023-04-16T05:48:33.161Z,18.70
2023-04-16T05:50:45.725Z,17.90
2023-04-16T05:52:58.213Z,18.80
2023-04-16T05:55:10.858Z,18.00
2023-04-16T05:57:23.368Z,19.90
2023-04-16T05:59:35.950Z,19.60
2023-04-16T06:01:48.589Z,20.60
2023-04-16T06:04:01.386Z,20.10
2023-04-16T06:06:14.073Z,20.80
2023-04-16T06:08:26.614Z,21.90
2023-04-16T06:10:39.252Z,21.00
2023-04-16T06:12:51.752Z,19.80
2023-04-16T06:15:05.442Z,20.50
2023-04-16T06:17:19.286Z,20.30
2023-04-16T06:19:31.781Z,20.60
2023-04-16T06:21:44.367Z,21.00
2023-04-16T06:23:56.934Z,21.80
2023-04-16T06:26:11.355Z,22.00
2023-04-16T06:28:23.897Z,22.90
2023-04-16T06:30:36.518Z,23.00
2023-04-16T06:32:49.325Z,24.40
2023-04-16T06:35:01.921Z,23.50
2023-04-16T06:37:14.488Z,25.10
2023-04-16T06:39:27.502Z,23.20
2023-04-16T06:41:40.274Z,24.60
2023-04-16T06:43:52.792Z,24.40
2023-04-16T06:46:05.372Z,23.70
2023-04-16T06:48:17.886Z,24.60
2023-04-16T06:50:30.512Z,23.50
2023-04-16T06:52:43.107Z,23.40
2023-04-16T06:54:56.358Z,23.50
2023-04-16T06:57:08.894Z,22.90
2023-04-16T06:59:21.416Z,24.00
2023-04-16T07:01:34.254Z,24.70
2023-04-16T07:03:47.303Z,25.10
2023-04-16T07:06:00.219Z,24.70
2023-04-16T07:08:12.788Z,23.70
2023-04-16T07:10:25.563Z,25.10
2023-04-16T07:12:38.888Z,24.00
2023-04-16T07:14:51.561Z,24.70
2023-04-16T07:17:04.129Z,25.40
2023-04-16T07:19:16.717Z,24.60
2023-04-16T07:21:29.415Z,24.70
2023-04-16T07:23:42.023Z,25.60
2023-04-16T07:25:57.125Z,25.00
2023-04-16T07:28:09.742Z,24.30
2023-04-16T07:30:22.261Z,22.80
2023-04-16T07:32:35.497Z,23.40
2023-04-16T07:34:48.039Z,24.10
2023-04-16T07:37:00.779Z,23.50
2023-04-16T07:39:13.319Z,23.30
2023-04-16T07:41:26.173Z,22.50
2023-04-16T07:43:38.705Z,22.30
2023-04-16T07:45:51.571Z,23.80
2023-04-16T07:48:05.230Z,22.80
2023-04-16T07:50:19.423Z,23.00
2023-04-16T07:52:32.272Z,22.70
2023-04-16T07:54:44.821Z,22.70
2023-04-16T07:56:57.443Z,21.10
2023-04-16T07:59:21.786Z,20.70
2023-04-16T08:01:35.915Z,21.20
2023-04-16T08:03:48.578Z,20.30
2023-04-16T08:06:01.353Z,20.50
2023-04-16T08:08:13.908Z,19.40
2023-04-16T08:10:27.454Z,20.50
2023-04-16T08:12:40.687Z,20.50
2023-04-16T08:14:53.216Z,20.90
2023-04-16T08:17:05.970Z,20.30
2023-04-16T08:19:18.724Z,20.50
2023-04-16T08:21:31.590Z,19.90
2023-04-16T08:23:44.112Z,19.80
2023-04-16T08:25:56.767Z,19.90
2023-04-16T08:28:09.582Z,20.20
2023-04-16T08:30:22.997Z,18.40
2023-04-16T08:32:35.707Z,18.50
2023-04-16T08:34:48.338Z,18.60
2023-04-16T08:37:01.100Z,17.10
2023-04-16T08:39:13.698Z,17.60
2023-04-16T08:41:29.993Z,16.20
2023-04-16T08:43:45.348Z,17.10
2023-04-16T08:45:59.139Z,16.50
2023-04-16T08:48:12.030Z,16.30
2023-04-16T08:50:26.601Z,15.20
2023-04-16T08:52:45.932Z,15.00
2023-04-16T08:55:05.344Z,15.30
2023-04-16T08:57:19.783Z,15.30
2023-04-16T08:59:33.069Z,17.10
2023-04-16T09:01:46.778Z,15.60
2023-04-16T09:04:02.842Z,14.90
2023-04-16T09:06:16.644Z,15.10
2023-04-16T09:08:29.676Z,14.80
2023-04-16T09:10:43.226Z,15.00
2023-04-16T09:12:57.316Z,14.60
2023-04-16T09:15:11.460Z,13.30
2023-04-16T09:17:24.097Z,14.50
2023-04-16T09:19:36.764Z,14.00
2023-04-16T09:21:49.826Z,13.40
2023-04-16T09:24:03.446Z,13.30
2023-04-16T09:26:16.229Z,13.50
2023-04-16T09:28:46.429Z,13.20
2023-04-16T09:31:13.748Z,12.70
2023-04-16T09:33:26.334Z,12.00
2023-04-16T09:35:49.648Z,12.00
2023-04-16T09:38:02.225Z,12.10
2023-04-16T09:40:24.762Z,11.70
2023-04-16T09:42:37.471Z,12.10
2023-04-16T09:44:50.599Z,9.90
2023-04-16T09:47:07.959Z,11.40
2023-04-16T09:49:20.468Z,10.40
2023-04-16T09:51:37.394Z,10.60
2023-04-16T09:53:53.103Z,11.20
2023-04-16T09:56:06.689Z,10.70
2023-04-16T09:58:20.085Z,9.30
2023-04-16T10:00:32.702Z,10.20
2023-04-16T10:02:45.560Z,8.90
2023-04-16T10:05:01.287Z,8.70
2023-04-16T10:07:14.170Z,8.60
2023-04-16T10:09:26.675Z,8.20
2023-04-16T10:11:39.484Z,9.10
2023-04-16T10:13:52.153Z,8.20
2023-04-16T10:16:05.192Z,7.70
2023-04-16T10:18:18.220Z,7.50
2023-04-16T10:20:31.134Z,6.80
2023-04-16T10:22:43.939Z,6.60
2023-04-16T10:24:57.336Z,6.10
2023-04-16T10:27:09.893Z,3.90
2023-04-16T10:29:23.529Z,5.00
2023-04-16T10:31:37.694Z,5.60
2023-04-16T10:33:50.436Z,4.90
2023-04-16T10:36:17.313Z,5.30
2023-04-16T10:38:29.904Z,5.60
2023-04-16T10:40:44.907Z,4.40
2023-04-16T10:42:58.586Z,4.50
2023-04-16T10:45:11.288Z,5.10
2023-04-16T10:47:24.930Z,4.70
2023-04-16T10:49:37.511Z,5.20
2023-04-16T10:51:54.970Z,4.80
2023-04-16T10:54:12.530Z,4.40
2023-04-16T10:56:27.015Z,5.00
2023-04-16T10:58:39.678Z,4.50
2023-04-16T11:00:52.318Z,4.50
2023-04-16T11:03:04.992Z,4.50
2023-04-16T11:05:22.766Z,4.50
2023-04-16T11:07:35.848Z,4.00
2023-04-16T11:09:59.325Z,4.20
2023-04-16T11:12:34.163Z,6.60
2023-04-16T11:15:00.486Z,4.20
2023-04-16T11:17:13.258Z,4.20
2023-04-16T11:19:25.870Z,4.20
2023-04-16T11:21:38.469Z,4.00
2023-04-16T11:23:53.328Z,4.00
2023-04-16T11:26:06.044Z,3.90
2023-04-16T11:28:18.697Z,4.10
2023-04-16T11:30:35.843Z,4.20
2023-04-16T11:32:48.454Z,4.40
2023-04-16T11:35:15.132Z,4.30
2023-04-16T11:37:35.372Z,4.10
2023-04-16T11:39:52.621Z,3.40
2023-04-16T11:42:05.423Z,3.70
2023-04-16T11:44:23.397Z,3.50
2023-04-16T11:46:40.610Z,3.30
2023-04-16T11:48:55.390Z,3.50
2023-04-16T11:51:08.497Z,3.50
2023-04-16T11:53:21.222Z,3.40
2023-04-16T11:55:44.534Z,3.50
2023-04-16T11:57:57.117Z,4.70
2023-04-16T12:00:15.966Z,3.50
2023-04-16T12:02:45.563Z,3.40
2023-04-16T12:04:58.495Z,3.80
2023-04-16T12:07:14.668Z,3.50
2023-04-16T12:09:27.509Z,3.50
2023-04-16T12:11:41.453Z,3.30
2023-04-16T12:14:14.296Z,3.90
2023-04-16T12:16:27.241Z,3.90
2023-04-16T12:18:59.163Z,3.40
2023-04-16T12:21:11.932Z,3.80
2023-04-16T12:23:25.534Z,3.40
2023-04-16T12:25:38.268Z,3.50
2023-04-16T12:27:53.720Z,3.60
2023-04-16T12:30:08.024Z,3.40
2023-04-16T12:32:22.997Z,3.30
2023-04-16T12:34:50.364Z,3.50
2023-04-16T12:37:06.577Z,3.30
2023-04-16T12:39:19.144Z,3.30
2023-04-16T12:41:31.751Z,3.30
2023-04-16T12:43:44.296Z,3.00
2023-04-16T12:45:57.147Z,3.20
2023-04-16T12:48:10.171Z,2.90
2023-04-16T12:50:23.094Z,3.20
2023-04-16T12:52:35.828Z,3.80
2023-04-16T12:54:48.374Z,2.90
2023-04-16T12:57:00.869Z,3.10
2023-04-16T12:59:13.403Z,3.00
2023-04-16T13:01:25.948Z,2.70
2023-04-16T13:03:38.664Z,2.80
2023-04-16T13:05:51.769Z,3.00
2023-04-16T13:08:04.451Z,3.00
2023-04-16T13:10:17.341Z,3.10
2023-04-16T13:12:29.950Z,2.80
2023-04-16T13:14:43.998Z,3.60
2023-04-16T13:16:57.580Z,2.80
2023-04-16T13:19:10.493Z,3.20
2023-04-16T13:21:23.843Z,4.00
2023-04-16T13:23:36.483Z,3.10
2023-04-16T13:25:50.585Z,3.60
2023-04-16T13:28:03.314Z,2.70
2023-04-16T13:30:16.268Z,2.90
2023-04-16T13:32:28.940Z,2.70
2023-04-16T13:34:41.583Z,2.90
2023-04-16T13:36:54.087Z,3.40
2023-04-16T13:39:11.311Z,2.60
2023-04-16T13:41:24.297Z,2.90
2023-04-16T13:43:37.095Z,2.80
2023-04-16T13:45:49.694Z,2.40
2023-04-16T13:48:02.504Z,2.30
2023-04-16T13:50:16.045Z,2.50
2023-04-16T13:52:28.577Z,2.30
2023-04-16T13:54:41.495Z,2.60
2023-04-16T13:56:54.142Z,2.50
2023-04-16T13:59:06.794Z,2.50
2023-04-16T14:01:19.667Z,2.40
2023-04-16T14:03:35.835Z,2.50
2023-04-16T14:05:48.447Z,2.10
2023-04-16T14:08:00.972Z,2.40
2023-04-16T14:10:13.608Z,2.50
2023-04-16T14:12:27.314Z,2.60
2023-04-16T14:14:39.922Z,2.70
2023-04-16T14:16:54.709Z,2.40
2023-04-16T14:19:07.226Z,2.40
2023-04-16T14:21:19.739Z,2.50
2023-04-16T14:23:32.718Z,2.10
2023-04-16T14:25:45.320Z,2.00
2023-04-16T14:28:00.062Z,1.90
2023-04-16T14:30:13.133Z,2.10
2023-04-16T14:32:26.499Z,2.30
2023-04-16T14:34:39.066Z,2.20
2023-04-16T14:36:52.023Z,2.10
2023-04-16T14:39:04.686Z,2.60
2023-04-16T14:41:17.281Z,2.40
2023-04-16T14:43:29.825Z,2.00
2023-04-16T14:45:42.568Z,2.00
2023-04-16T14:47:55.244Z,2.60
2023-04-16T14:50:08.349Z,2.10
2023-04-16T14:52:20.920Z,2.20
2023-04-16T14:54:33.959Z,2.10
2023-04-16T14:56:47.390Z,2.20
2023-04-16T14:58:59.966Z,2.10
2023-04-16T15:01:14.755Z,2.40
2023-04-16T15:03:27.748Z,3.70
2023-04-16T15:05:40.831Z,2.80
2023-04-16T15:07:53.862Z,2.40
2023-04-16T15:10:09.095Z,1.90
2023-04-16T15:12:21.674Z,1.70
2023-04-16T15:14:34.219Z,2.10
2023-04-16T15:16:48.960Z,2.00
2023-04-16T15:19:04.810Z,1.90
2023-04-16T15:21:17.840Z,1.90
2023-04-16T15:23:31.950Z,2.50
2023-04-16T15:25:44.586Z,1.90
2023-04-16T15:27:57.153Z,1.70
2023-04-16T15:30:10.249Z,1.90
2023-04-16T15:32:23.087Z,1.90
2023-04-16T15:34:35.672Z,1.80
2023-04-16T15:36:48.208Z,1.70
2023-04-16T15:39:00.820Z,2.40
2023-04-16T15:41:13.602Z,2.30
2023-04-16T15:43:30.124Z,2.50
2023-04-16T15:45:42.770Z,1.90
2023-04-16T15:47:56.424Z,2.50
2023-04-16T15:50:09.599Z,2.30
2023-04-16T15:52:22.237Z,1.90
2023-04-16T15:54:34.816Z,1.80
2023-04-16T15:56:47.560Z,1.70
2023-04-16T15:59:00.143Z,2.00
2023-04-16T16:01:12.731Z,5.40
2023-04-16T16:03:25.444Z,2.70
2023-04-16T16:05:38.234Z,2.30
2023-04-16T16:07:51.698Z,2.20
2023-04-16T16:10:05.925Z,1.80
2023-04-16T16:12:18.753Z,1.90
2023-04-16T16:14:33.044Z,1.90
2023-04-16T16:16:45.884Z,2.00
2023-04-16T16:18:58.440Z,2.00
2023-04-16T16:21:11.249Z,2.00
2023-04-16T16:23:23.948Z,2.30
2023-04-16T16:25:37.089Z,1.70
2023-04-16T16:27:49.601Z,2.50
2023-04-16T16:30:04.465Z,2.00
2023-04-16T16:32:17.076Z,2.20
2023-04-16T16:34:29.657Z,2.20
2023-04-16T16:36:42.186Z,1.90
2023-04-16T16:38:55.193Z,2.10
2023-04-16T16:41:08.577Z,2.30
2023-04-16T16:43:21.419Z,2.40
2023-04-16T16:45:33.942Z,2.20
2023-04-16T16:47:46.788Z,2.40
2023-04-16T16:50:00.754Z,2.10
2023-04-16T16:52:15.396Z,2.00
2023-04-16T16:54:27.923Z,2.70
2023-04-16T16:56:40.475Z,2.80
2023-04-16T16:58:52.965Z,2.50
2023-04-16T17:01:05.826Z,2.40
2023-04-16T17:03:18.711Z,2.50
2023-04-16T17:05:31.446Z,3.60
2023-04-16T17:07:44.098Z,4.40
2023-04-16T17:09:56.728Z,4.30
2023-04-16T17:12:09.351Z,3.60
2023-04-16T17:14:21.875Z,3.90
2023-04-16T17:16:34.493Z,5.70
2023-04-16T17:18:47.222Z,4.10
2023-04-16T17:20:59.931Z,3.10
2023-04-16T17:23:12.597Z,4.50
2023-04-16T17:25:25.198Z,4.50
2023-04-16T17:27:37.758Z,4.20
2023-04-16T17:29:50.677Z,4.00
2023-04-16T17:32:03.888Z,5.80
2023-04-16T17:34:19.440Z,6.10
2023-04-16T17:36:32.166Z,6.30
2023-04-16T17:38:45.073Z,3.80
2023-04-16T17:40:57.991Z,4.20
2023-04-16T17:43:10.605Z,4.00
2023-04-16T17:45:23.139Z,3.10
2023-04-16T17:47:36.387Z,3.30
2023-04-16T17:49:48.938Z,3.70
2023-04-16T17:52:01.903Z,3.80
2023-04-16T17:54:14.578Z,3.90
2023-04-16T17:56:27.205Z,5.00
2023-04-16T17:58:39.871Z,4.20
2023-04-16T18:00:52.383Z,4.40
2023-04-16T18:03:05.243Z,5.50
2023-04-16T18:05:19.062Z,6.20
2023-04-16T18:07:32.423Z,5.30
2023-04-16T18:09:45.213Z,6.70
2023-04-16T18:11:57.791Z,5.70
2023-04-16T18:14:13.228Z,6.90
2023-04-16T18:16:26.227Z,5.80
2023-04-16T18:18:38.810Z,6.20
2023-04-16T18:20:52.337Z,6.20
2023-04-16T18:23:04.936Z,6.70
2023-04-16T18:25:19.013Z,6.10
2023-04-16T18:27:33.338Z,7.00
2023-04-16T18:29:45.902Z,7.90
2023-04-16T18:31:59.125Z,7.50
2023-04-16T18:34:12.538Z,11.50
2023-04-16T18:36:26.582Z,12.80
2023-04-16T18:38:49.379Z,14.20
2023-04-16T18:41:17.696Z,13.40
2023-04-16T18:43:31.052Z,10.50
2023-04-16T18:45:43.600Z,9.50
2023-04-16T18:47:58.814Z,7.40
2023-04-16T18:50:11.426Z,7.10
2023-04-16T18:52:24.038Z,6.10
2023-04-16T18:54:36.676Z,7.00
2023-04-16T18:56:49.242Z,6.20
2023-04-16T18:59:01.895Z,6.30
2023-04-16T19:01:14.503Z,6.50
2023-04-16T19:03:29.587Z,6.90
2023-04-16T19:05:42.248Z,6.40
2023-04-16T19:07:55.480Z,7.40
2023-04-16T19:10:08.594Z,7.30
2023-04-16T19:12:21.511Z,8.10
2023-04-16T19:14:34.089Z,8.90
2023-04-16T19:16:47.386Z,15.00
2023-04-16T19:19:00.777Z,15.10
2023-04-16T19:21:13.369Z,15.40
2023-04-16T19:23:26.661Z,13.90
2023-04-16T19:25:40.804Z,13.90
2023-04-16T19:27:55.575Z,16.60
2023-04-16T19:30:08.817Z,16.00
2023-04-16T19:32:21.523Z,16.10
2023-04-16T19:34:34.129Z,16.20
2023-04-16T19:36:46.901Z,18.10
2023-04-16T19:38:59.490Z,16.50
2023-04-16T19:41:12.099Z,20.00
2023-04-16T19:43:24.652Z,22.50
2023-04-16T19:45:46.038Z,23.20
2023-04-16T19:47:58.957Z,25.70
2023-04-16T19:50:11.719Z,26.90
2023-04-16T19:52:24.315Z,29.20
2023-04-16T19:54:37.542Z,24.40
2023-04-16T19:56:53.080Z,10.90
2023-04-16T19:59:05.673Z,9.90
2023-04-16T20:01:18.322Z,10.60
2023-04-16T20:03:30.984Z,10.10
2023-04-16T20:05:43.555Z,10.10
2023-04-16T20:07:56.614Z,10.40
2023-04-16T20:10:09.736Z,10.10
2023-04-16T20:12:22.836Z,10.10
2023-04-16T20:14:35.496Z,10.10
2023-04-16T20:16:48.243Z,10.80
2023-04-16T20:19:08.604Z,10.50
2023-04-16T20:21:21.673Z,10.20
2023-04-16T20:23:34.244Z,11.00
2023-04-16T20:25:46.849Z,10.50
2023-04-16T20:27:59.408Z,10.90
2023-04-16T20:30:12.763Z,12.90
2023-04-16T20:32:27.206Z,18.00
2023-04-16T20:34:40.551Z,24.20
2023-04-16T20:36:54.756Z,26.90
2023-04-16T20:39:08.148Z,26.30
2023-04-16T20:41:21.282Z,22.40
2023-04-16T20:43:40.967Z,13.70
2023-04-16T20:45:53.828Z,11.30
2023-04-16T20:48:09.581Z,11.20
2023-04-16T20:50:22.220Z,11.20
2023-04-16T20:52:34.742Z,11.40
2023-04-16T20:54:47.862Z,11.80
2023-04-16T20:57:01.908Z,12.50
2023-04-16T20:59:16.032Z,11.90
2023-04-16T21:01:28.552Z,12.10
2023-04-16T21:03:41.398Z,12.30
2023-04-16T21:05:55.376Z,13.10
2023-04-16T21:08:07.967Z,14.90
2023-04-16T21:10:20.748Z,13.80
2023-04-16T21:12:33.278Z,13.30
2023-04-16T21:14:45.870Z,12.60
2023-04-16T21:16:58.432Z,13.20
2023-04-16T21:19:11.259Z,12.40
2023-04-16T21:21:24.959Z,12.50
2023-04-16T21:23:37.501Z,12.80
2023-04-16T21:25:50.081Z,13.40
2023-04-16T21:28:02.654Z,13.80
2023-04-16T21:30:15.782Z,16.10
2023-04-16T21:32:28.386Z,15.80
2023-04-16T21:34:41.014Z,16.60
2023-04-16T21:36:53.555Z,16.40
2023-04-16T21:39:06.108Z,15.70
2023-04-16T21:41:18.641Z,16.10
2023-04-16T21:43:32.197Z,19.30
2023-04-16T21:45:44.951Z,18.20
2023-04-16T21:47:57.588Z,16.80
2023-04-16T21:50:10.694Z,17.70
2023-04-16T21:52:23.242Z,16.90
2023-04-16T21:54:35.944Z,16.70
2023-04-16T21:56:48.480Z,16.90
2023-04-16T21:59:01.082Z,17.20
2023-04-16T22:01:13.703Z,17.10
2023-04-16T22:03:27.594Z,17.40
2023-04-16T22:05:40.354Z,16.90
2023-04-16T22:07:53.178Z,15.60
2023-04-16T22:10:06.778Z,14.60
2023-04-16T22:12:19.355Z,15.40
2023-04-16T22:14:31.999Z,14.40
2023-04-16T22:16:44.938Z,14.50
2023-04-16T22:18:57.467Z,13.90
2023-04-16T22:21:10.325Z,12.80
2023-04-16T22:23:24.048Z,14.30
2023-04-16T22:25:36.709Z,14.30
2023-04-16T22:27:49.260Z,14.50
2023-04-16T22:30:02.760Z,14.40
2023-04-16T22:32:15.512Z,13.80
2023-04-16T22:34:28.134Z,14.50
2023-04-16T22:36:41.273Z,14.10
2023-04-16T22:38:53.834Z,14.10
2023-04-16T22:41:06.376Z,14.70
2023-04-16T22:43:18.929Z,16.30
2023-04-16T22:45:31.534Z,17.00
2023-04-16T22:47:44.155Z,15.80
2023-04-16T22:49:56.674Z,15.20
2023-04-16T22:52:09.212Z,15.70
2023-04-16T22:54:21.778Z,15.50
2023-04-16T22:56:34.383Z,15.60
2023-04-16T22:58:49.169Z,17.60
2023-04-16T23:01:01.799Z,17.60
2023-04-16T23:03:15.537Z,16.60
2023-04-16T23:05:28.138Z,18.20
2023-04-16T23:07:40.710Z,18.10
2023-04-16T23:09:53.270Z,18.10
2023-04-16T23:12:06.146Z,16.90
2023-04-16T23:14:18.682Z,17.00
2023-04-16T23:16:31.347Z,18.40
2023-04-16T23:18:43.924Z,18.90
2023-04-16T23:20:56.552Z,19.90
2023-04-16T23:23:09.096Z,18.00
2023-04-16T23:25:23.508Z,18.60
2023-04-16T23:27:36.461Z,18.50
2023-04-16T23:29:49.246Z,17.90
2023-04-16T23:32:01.903Z,18.10
2023-04-16T23:34:14.628Z,17.70
2023-04-16T23:36:27.542Z,16.20
2023-04-16T23:38:40.055Z,17.90
2023-04-16T23:40:52.623Z,18.60
2023-04-16T23:43:05.179Z,19.40
2023-04-16T23:45:17.927Z,19.90
2023-04-16T23:47:30.649Z,20.00
2023-04-16T23:49:43.255Z,18.80
2023-04-16T23:51:55.853Z,18.70
2023-04-16T23:54:08.374Z,19.20
2023-04-16T23:56:21.165Z,17.70
2023-04-16T23:58:33.692Z,18.30
